sensor_id;sensor_type;location;lat;lon;timestamp;P1;durP1;ratioP1;P2;durP2;ratioP2
9240;SDS011;53485;49.326;9.738;2023-02-12T00:02:22;45.37;;;25.77;;
9240;SDS011;53485;49.326;9.738;2023-02-12T00:04:48;48.93;;;28.40;;
9240;SDS011;53485;49.326;9.738;2023-02-12T00:07:15;46.83;;;26.03;;
9240;SDS011;53485;49.326;9.738;2023-02-12T00:09:42;36.77;;;22.60;;
9240;SDS011;53485;49.326;9.738;2023-02-12T00:12:08;33.50;;;20.60;;
9240;SDS011;53485;49.326;9.738;2023-02-12T00:14:36;51.70;;;29.20;;
9240;SDS011;53485;49.326;9.738;2023-02-12T00:17:02;46.83;;;27.47;;
9240;SDS011;53485;49.326;9.738;2023-02-12T00:19:28;51.53;;;29.43;;
9240;SDS011;53485;49.326;9.738;2023-02-12T00:21:54;55.87;;;29.47;;
9240;SDS011;53485;49.326;9.738;2023-02-12T00:24:21;51.50;;;27.90;;
9240;SDS011;53485;49.326;9.738;2023-02-12T00:26:47;53.37;;;29.33;;
9240;SDS011;53485;49.326;9.738;2023-02-12T00:29:14;49.00;;;27.37;;
9240;SDS011;53485;49.326;9.738;2023-02-12T00:31:40;46.57;;;26.67;;
9240;SDS011;53485;49.326;9.738;2023-02-12T00:34:08;48.93;;;28.80;;
9240;SDS011;53485;49.326;9.738;2023-02-12T00:36:33;53.27;;;30.17;;
9240;SDS011;53485;49.326;9.738;2023-02-12T00:39:00;44.57;;;26.83;;
9240;SDS011;53485;49.326;9.738;2023-02-12T00:41:27;52.33;;;29.20;;
9240;SDS011;53485;49.326;9.738;2023-02-12T00:43:53;50.67;;;28.23;;
9240;SDS011;53485;49.326;9.738;2023-02-12T00:46:20;51.23;;;29.63;;
9240;SDS011;53485;49.326;9.738;2023-02-12T00:48:46;55.00;;;29.80;;
9240;SDS011;53485;49.326;9.738;2023-02-12T00:51:13;51.00;;;28.73;;
9240;SDS011;53485;49.326;9.738;2023-02-12T00:53:40;46.73;;;26.53;;
9240;SDS011;53485;49.326;9.738;2023-02-12T00:56:06;47.77;;;27.30;;
9240;SDS011;53485;49.326;9.738;2023-02-12T00:58:33;50.43;;;28.57;;
9240;SDS011;53485;49.326;9.738;2023-02-12T01:01:00;42.87;;;24.03;;
9240;SDS011;53485;49.326;9.738;2023-02-12T01:03:26;43.97;;;26.40;;
9240;SDS011;53485;49.326;9.738;2023-02-12T01:05:53;43.57;;;25.63;;
9240;SDS011;53485;49.326;9.738;2023-02-12T01:08:20;47.77;;;27.37;;
9240;SDS011;53485;49.326;9.738;2023-02-12T01:10:52;45.27;;;26.80;;
9240;SDS011;53485;49.326;9.738;2023-02-12T01:13:13;50.67;;;28.43;;
9240;SDS011;53485;49.326;9.738;2023-02-12T01:15:39;54.70;;;29.53;;
9240;SDS011;53485;49.326;9.738;2023-02-12T01:18:05;48.17;;;28.57;;
9240;SDS011;53485;49.326;9.738;2023-02-12T01:20:31;54.07;;;28.57;;
9240;SDS011;53485;49.326;9.738;2023-02-12T01:22:58;51.57;;;28.13;;
9240;SDS011;53485;49.326;9.738;2023-02-12T01:25:24;50.70;;;28.30;;
9240;SDS011;53485;49.326;9.738;2023-02-12T01:27:52;49.80;;;28.37;;
9240;SDS011;53485;49.326;9.738;2023-02-12T01:30:18;55.53;;;31.03;;
9240;SDS011;53485;49.326;9.738;2023-02-12T01:32:44;59.87;;;33.07;;
9240;SDS011;53485;49.326;9.738;2023-02-12T01:35:11;55.20;;;30.63;;
9240;SDS011;53485;49.326;9.738;2023-02-12T01:37:37;51.27;;;28.43;;
9240;SDS011;53485;49.326;9.738;2023-02-12T01:40:04;55.87;;;32.53;;
9240;SDS011;53485;49.326;9.738;2023-02-12T01:42:30;57.33;;;33.57;;
9240;SDS011;53485;49.326;9.738;2023-02-12T01:47:29;53.93;;;30.23;;
9240;SDS011;53485;49.326;9.738;2023-02-12T01:49:56;55.20;;;31.73;;
9240;SDS011;53485;49.326;9.738;2023-02-12T01:52:26;56.63;;;33.77;;
9240;SDS011;53485;49.326;9.738;2023-02-12T01:54:50;57.87;;;33.60;;
9240;SDS011;53485;49.326;9.738;2023-02-12T01:57:16;65.73;;;33.43;;
9240;SDS011;53485;49.326;9.738;2023-02-12T01:59:43;62.53;;;37.80;;
9240;SDS011;53485;49.326;9.738;2023-02-12T02:02:09;64.63;;;37.97;;
9240;SDS011;53485;49.326;9.738;2023-02-12T02:04:37;68.87;;;40.47;;
9240;SDS011;53485;49.326;9.738;2023-02-12T02:07:03;66.40;;;37.20;;
9240;SDS011;53485;49.326;9.738;2023-02-12T02:09:29;58.97;;;34.30;;
9240;SDS011;53485;49.326;9.738;2023-02-12T02:11:54;67.87;;;35.90;;
9240;SDS011;53485;49.326;9.738;2023-02-12T02:14:26;60.73;;;35.03;;
9240;SDS011;53485;49.326;9.738;2023-02-12T02:17:02;62.23;;;35.57;;
9240;SDS011;53485;49.326;9.738;2023-02-12T02:22:20;64.97;;;36.20;;
9240;SDS011;53485;49.326;9.738;2023-02-12T02:24:52;67.97;;;36.03;;
9240;SDS011;53485;49.326;9.738;2023-02-12T02:27:17;57.93;;;34.93;;
9240;SDS011;53485;49.326;9.738;2023-02-12T02:29:50;63.63;;;35.63;;
9240;SDS011;53485;49.326;9.738;2023-02-12T02:32:12;69.17;;;36.37;;
9240;SDS011;53485;49.326;9.738;2023-02-12T02:34:39;67.23;;;36.27;;
9240;SDS011;53485;49.326;9.738;2023-02-12T02:37:17;58.07;;;33.03;;
9240;SDS011;53485;49.326;9.738;2023-02-12T02:39:49;65.30;;;36.57;;
9240;SDS011;53485;49.326;9.738;2023-02-12T02:42:23;57.97;;;32.63;;
9240;SDS011;53485;49.326;9.738;2023-02-12T02:44:47;57.60;;;32.20;;
9240;SDS011;53485;49.326;9.738;2023-02-12T02:47:12;63.47;;;35.23;;
9240;SDS011;53485;49.326;9.738;2023-02-12T02:49:43;65.67;;;35.13;;
9240;SDS011;53485;49.326;9.738;2023-02-12T02:52:08;67.07;;;35.93;;
9240;SDS011;53485;49.326;9.738;2023-02-12T02:54:35;60.17;;;34.77;;
9240;SDS011;53485;49.326;9.738;2023-02-12T02:57:09;68.23;;;38.30;;
9240;SDS011;53485;49.326;9.738;2023-02-12T02:59:39;66.17;;;36.73;;
9240;SDS011;53485;49.326;9.738;2023-02-12T03:02:16;61.57;;;36.03;;
9240;SDS011;53485;49.326;9.738;2023-02-12T03:04:45;64.93;;;37.70;;
9240;SDS011;53485;49.326;9.738;2023-02-12T03:07:15;57.43;;;33.87;;
9240;SDS011;53485;49.326;9.738;2023-02-12T03:09:40;67.37;;;37.80;;
9240;SDS011;53485;49.326;9.738;2023-02-12T03:12:07;69.37;;;37.77;;
9240;SDS011;53485;49.326;9.738;2023-02-12T03:14:32;76.90;;;40.40;;
9240;SDS011;53485;49.326;9.738;2023-02-12T03:17:06;77.67;;;40.93;;
9240;SDS011;53485;49.326;9.738;2023-02-12T03:19:36;79.67;;;40.90;;
9240;SDS011;53485;49.326;9.738;2023-02-12T03:22:03;66.73;;;38.47;;
9240;SDS011;53485;49.326;9.738;2023-02-12T03:24:29;72.87;;;38.90;;
9240;SDS011;53485;49.326;9.738;2023-02-12T03:26:57;65.47;;;35.43;;
9240;SDS011;53485;49.326;9.738;2023-02-12T03:29:20;67.17;;;38.53;;
9240;SDS011;53485;49.326;9.738;2023-02-12T03:31:58;65.43;;;38.27;;
9240;SDS011;53485;49.326;9.738;2023-02-12T03:37:03;66.83;;;38.63;;
9240;SDS011;53485;49.326;9.738;2023-02-12T03:39:33;68.77;;;38.73;;
9240;SDS011;53485;49.326;9.738;2023-02-12T03:42:05;68.57;;;36.47;;
9240;SDS011;53485;49.326;9.738;2023-02-12T03:44:40;65.67;;;36.87;;
9240;SDS011;53485;49.326;9.738;2023-02-12T03:47:12;70.67;;;38.23;;
9240;SDS011;53485;49.326;9.738;2023-02-12T03:49:39;63.13;;;35.47;;
9240;SDS011;53485;49.326;9.738;2023-02-12T03:52:04;67.47;;;36.87;;
9240;SDS011;53485;49.326;9.738;2023-02-12T03:54:30;69.17;;;39.17;;
9240;SDS011;53485;49.326;9.738;2023-02-12T03:56:57;69.50;;;36.77;;
9240;SDS011;53485;49.326;9.738;2023-02-12T03:59:23;63.90;;;36.67;;
9240;SDS011;53485;49.326;9.738;2023-02-12T04:01:50;64.77;;;35.17;;
9240;SDS011;53485;49.326;9.738;2023-02-12T04:04:15;63.50;;;37.47;;
9240;SDS011;53485;49.326;9.738;2023-02-12T04:06:41;61.83;;;34.13;;
9240;SDS011;53485;49.326;9.738;2023-02-12T04:09:09;67.70;;;38.23;;
9240;SDS011;53485;49.326;9.738;2023-02-12T04:11:53;63.03;;;36.33;;
9240;SDS011;53485;49.326;9.738;2023-02-12T04:14:21;63.97;;;35.07;;
9240;SDS011;53485;49.326;9.738;2023-02-12T04:16:54;73.30;;;40.67;;
9240;SDS011;53485;49.326;9.738;2023-02-12T04:19:19;86.10;;;43.70;;
9240;SDS011;53485;49.326;9.738;2023-02-12T04:21:51;74.07;;;40.43;;
9240;SDS011;53485;49.326;9.738;2023-02-12T04:24:18;75.10;;;40.87;;
9240;SDS011;53485;49.326;9.738;2023-02-12T04:26:49;74.60;;;40.43;;
9240;SDS011;53485;49.326;9.738;2023-02-12T04:29:47;75.03;;;41.40;;
9240;SDS011;53485;49.326;9.738;2023-02-12T04:32:02;74.40;;;40.77;;
9240;SDS011;53485;49.326;9.738;2023-02-12T04:34:41;61.77;;;34.67;;
9240;SDS011;53485;49.326;9.738;2023-02-12T04:37:06;70.30;;;36.00;;
9240;SDS011;53485;49.326;9.738;2023-02-12T04:39:32;70.93;;;38.57;;
9240;SDS011;53485;49.326;9.738;2023-02-12T04:41:58;72.73;;;37.97;;
9240;SDS011;53485;49.326;9.738;2023-02-12T04:44:24;70.17;;;39.80;;
9240;SDS011;53485;49.326;9.738;2023-02-12T04:46:50;68.80;;;37.27;;
9240;SDS011;53485;49.326;9.738;2023-02-12T04:49:16;57.03;;;32.50;;
9240;SDS011;53485;49.326;9.738;2023-02-12T04:51:42;85.57;;;43.17;;
9240;SDS011;53485;49.326;9.738;2023-02-12T04:54:09;84.90;;;43.07;;
9240;SDS011;53485;49.326;9.738;2023-02-12T04:56:35;70.20;;;38.20;;
9240;SDS011;53485;49.326;9.738;2023-02-12T04:59:01;67.57;;;37.30;;
9240;SDS011;53485;49.326;9.738;2023-02-12T05:01:27;71.50;;;38.13;;
9240;SDS011;53485;49.326;9.738;2023-02-12T05:03:54;74.43;;;39.67;;
9240;SDS011;53485;49.326;9.738;2023-02-12T05:06:21;80.83;;;42.30;;
9240;SDS011;53485;49.326;9.738;2023-02-12T05:08:47;70.50;;;39.87;;
9240;SDS011;53485;49.326;9.738;2023-02-12T05:11:14;88.90;;;43.87;;
9240;SDS011;53485;49.326;9.738;2023-02-12T05:13:41;86.83;;;45.47;;
9240;SDS011;53485;49.326;9.738;2023-02-12T05:16:07;90.13;;;45.10;;
9240;SDS011;53485;49.326;9.738;2023-02-12T05:18:34;85.27;;;43.97;;
9240;SDS011;53485;49.326;9.738;2023-02-12T05:21:01;75.07;;;40.20;;
9240;SDS011;53485;49.326;9.738;2023-02-12T05:23:27;83.87;;;42.93;;
9240;SDS011;53485;49.326;9.738;2023-02-12T05:25:52;75.73;;;40.23;;
9240;SDS011;53485;49.326;9.738;2023-02-12T05:28:19;74.67;;;41.97;;
9240;SDS011;53485;49.326;9.738;2023-02-12T05:30:45;78.07;;;42.73;;
9240;SDS011;53485;49.326;9.738;2023-02-12T05:33:12;78.27;;;43.27;;
9240;SDS011;53485;49.326;9.738;2023-02-12T05:35:38;82.53;;;42.43;;
9240;SDS011;53485;49.326;9.738;2023-02-12T05:38:05;77.07;;;40.83;;
9240;SDS011;53485;49.326;9.738;2023-02-12T05:40:31;92.33;;;46.93;;
9240;SDS011;53485;49.326;9.738;2023-02-12T05:42:58;82.73;;;43.83;;
9240;SDS011;53485;49.326;9.738;2023-02-12T05:45:24;77.23;;;40.03;;
9240;SDS011;53485;49.326;9.738;2023-02-12T05:47:51;81.97;;;43.17;;
9240;SDS011;53485;49.326;9.738;2023-02-12T05:50:18;71.83;;;40.47;;
9240;SDS011;53485;49.326;9.738;2023-02-12T05:52:44;90.00;;;45.50;;
9240;SDS011;53485;49.326;9.738;2023-02-12T05:55:11;82.87;;;44.27;;
9240;SDS011;53485;49.326;9.738;2023-02-12T05:57:37;74.63;;;38.60;;
9240;SDS011;53485;49.326;9.738;2023-02-12T06:00:05;78.13;;;41.20;;
9240;SDS011;53485;49.326;9.738;2023-02-12T06:02:32;79.63;;;43.47;;
9240;SDS011;53485;49.326;9.738;2023-02-12T06:04:58;79.73;;;41.87;;
9240;SDS011;53485;49.326;9.738;2023-02-12T06:07:25;94.87;;;46.37;;
9240;SDS011;53485;49.326;9.738;2023-02-12T06:09:51;84.93;;;44.30;;
9240;SDS011;53485;49.326;9.738;2023-02-12T06:12:17;99.10;;;47.27;;
9240;SDS011;53485;49.326;9.738;2023-02-12T06:14:44;97.73;;;47.13;;
9240;SDS011;53485;49.326;9.738;2023-02-12T06:17:11;114.03;;;51.33;;
9240;SDS011;53485;49.326;9.738;2023-02-12T06:19:37;107.37;;;50.00;;
9240;SDS011;53485;49.326;9.738;2023-02-12T06:22:04;100.27;;;49.63;;
9240;SDS011;53485;49.326;9.738;2023-02-12T06:24:30;97.60;;;48.73;;
9240;SDS011;53485;49.326;9.738;2023-02-12T06:26:57;97.67;;;48.20;;
9240;SDS011;53485;49.326;9.738;2023-02-12T06:29:23;96.33;;;47.20;;
9240;SDS011;53485;49.326;9.738;2023-02-12T06:31:50;99.27;;;47.13;;
9240;SDS011;53485;49.326;9.738;2023-02-12T06:34:17;99.13;;;47.97;;
9240;SDS011;53485;49.326;9.738;2023-02-12T06:36:44;114.33;;;51.47;;
9240;SDS011;53485;49.326;9.738;2023-02-12T06:39:10;114.33;;;49.77;;
9240;SDS011;53485;49.326;9.738;2023-02-12T06:41:36;112.40;;;50.60;;
9240;SDS011;53485;49.326;9.738;2023-02-12T06:44:03;127.53;;;59.10;;
9240;SDS011;53485;49.326;9.738;2023-02-12T06:46:29;109.90;;;51.57;;
9240;SDS011;53485;49.326;9.738;2023-02-12T06:48:55;98.33;;;48.07;;
9240;SDS011;53485;49.326;9.738;2023-02-12T06:51:21;105.43;;;49.27;;
9240;SDS011;53485;49.326;9.738;2023-02-12T06:53:48;110.20;;;52.40;;
9240;SDS011;53485;49.326;9.738;2023-02-12T06:56:14;120.87;;;51.27;;
9240;SDS011;53485;49.326;9.738;2023-02-12T06:58:41;104.20;;;46.97;;
9240;SDS011;53485;49.326;9.738;2023-02-12T07:01:11;110.63;;;48.43;;
9240;SDS011;53485;49.326;9.738;2023-02-12T07:03:36;105.97;;;48.37;;
9240;SDS011;53485;49.326;9.738;2023-02-12T07:06:02;99.00;;;49.37;;
9240;SDS011;53485;49.326;9.738;2023-02-12T07:08:28;99.17;;;44.73;;
9240;SDS011;53485;49.326;9.738;2023-02-12T07:10:55;105.60;;;50.70;;
9240;SDS011;53485;49.326;9.738;2023-02-12T07:13:22;127.40;;;59.20;;
9240;SDS011;53485;49.326;9.738;2023-02-12T07:15:48;141.23;;;62.90;;
9240;SDS011;53485;49.326;9.738;2023-02-12T07:18:15;129.23;;;57.80;;
9240;SDS011;53485;49.326;9.738;2023-02-12T07:20:42;118.03;;;57.70;;
9240;SDS011;53485;49.326;9.738;2023-02-12T07:23:10;104.27;;;50.33;;
9240;SDS011;53485;49.326;9.738;2023-02-12T07:25:35;103.30;;;47.13;;
9240;SDS011;53485;49.326;9.738;2023-02-12T07:28:02;87.20;;;43.90;;
9240;SDS011;53485;49.326;9.738;2023-02-12T07:30:28;97.47;;;45.80;;
9240;SDS011;53485;49.326;9.738;2023-02-12T07:32:55;94.07;;;44.90;;
9240;SDS011;53485;49.326;9.738;2023-02-12T07:35:22;91.23;;;42.63;;
9240;SDS011;53485;49.326;9.738;2023-02-12T07:37:48;91.10;;;43.93;;
9240;SDS011;53485;49.326;9.738;2023-02-12T07:40:15;95.53;;;44.43;;
9240;SDS011;53485;49.326;9.738;2023-02-12T07:42:42;87.73;;;45.23;;
9240;SDS011;53485;49.326;9.738;2023-02-12T07:45:08;100.87;;;45.97;;
9240;SDS011;53485;49.326;9.738;2023-02-12T07:47:35;86.30;;;44.87;;
9240;SDS011;53485;49.326;9.738;2023-02-12T07:50:01;88.77;;;43.30;;
9240;SDS011;53485;49.326;9.738;2023-02-12T07:52:28;84.73;;;41.03;;
9240;SDS011;53485;49.326;9.738;2023-02-12T07:54:54;86.27;;;42.23;;
9240;SDS011;53485;49.326;9.738;2023-02-12T07:57:21;76.77;;;38.93;;
9240;SDS011;53485;49.326;9.738;2023-02-12T07:59:48;79.60;;;39.63;;
9240;SDS011;53485;49.326;9.738;2023-02-12T08:02:14;83.50;;;39.00;;
9240;SDS011;53485;49.326;9.738;2023-02-12T08:04:41;85.20;;;41.57;;
9240;SDS011;53485;49.326;9.738;2023-02-12T08:07:08;85.37;;;40.23;;
9240;SDS011;53485;49.326;9.738;2023-02-12T08:09:34;78.57;;;38.83;;
9240;SDS011;53485;49.326;9.738;2023-02-12T08:12:01;75.67;;;38.73;;
9240;SDS011;53485;49.326;9.738;2023-02-12T08:14:28;84.03;;;41.53;;
9240;SDS011;53485;49.326;9.738;2023-02-12T08:16:54;77.63;;;39.00;;
9240;SDS011;53485;49.326;9.738;2023-02-12T08:19:21;73.40;;;39.77;;
9240;SDS011;53485;49.326;9.738;2023-02-12T08:21:48;74.10;;;36.20;;
9240;SDS011;53485;49.326;9.738;2023-02-12T08:24:14;72.53;;;38.60;;
9240;SDS011;53485;49.326;9.738;2023-02-12T08:26:40;80.53;;;42.27;;
9240;SDS011;53485;49.326;9.738;2023-02-12T08:29:09;75.93;;;41.23;;
9240;SDS011;53485;49.326;9.738;2023-02-12T08:31:35;73.57;;;38.77;;
9240;SDS011;53485;49.326;9.738;2023-02-12T08:34:01;73.07;;;39.30;;
9240;SDS011;53485;49.326;9.738;2023-02-12T08:36:28;97.00;;;48.77;;
9240;SDS011;53485;49.326;9.738;2023-02-12T08:38:55;87.83;;;44.70;;
9240;SDS011;53485;49.326;9.738;2023-02-12T08:41:21;89.60;;;42.33;;
9240;SDS011;53485;49.326;9.738;2023-02-12T08:43:46;84.07;;;43.27;;
9240;SDS011;53485;49.326;9.738;2023-02-12T08:46:14;73.80;;;37.57;;
9240;SDS011;53485;49.326;9.738;2023-02-12T08:48:39;82.33;;;40.03;;
9240;SDS011;53485;49.326;9.738;2023-02-12T08:51:10;75.47;;;36.53;;
9240;SDS011;53485;49.326;9.738;2023-02-12T08:53:36;79.57;;;35.37;;
9240;SDS011;53485;49.326;9.738;2023-02-12T08:56:01;67.73;;;34.67;;
9240;SDS011;53485;49.326;9.738;2023-02-12T08:58:28;67.43;;;33.43;;
9240;SDS011;53485;49.326;9.738;2023-02-12T09:00:55;66.30;;;32.33;;
9240;SDS011;53485;49.326;9.738;2023-02-12T09:03:21;62.10;;;31.80;;
9240;SDS011;53485;49.326;9.738;2023-02-12T09:05:48;59.60;;;30.70;;
9240;SDS011;53485;49.326;9.738;2023-02-12T09:08:14;61.17;;;30.50;;
9240;SDS011;53485;49.326;9.738;2023-02-12T09:10:41;60.57;;;32.47;;
9240;SDS011;53485;49.326;9.738;2023-02-12T09:13:07;62.23;;;31.40;;
9240;SDS011;53485;49.326;9.738;2023-02-12T09:15:36;56.20;;;29.37;;
9240;SDS011;53485;49.326;9.738;2023-02-12T09:18:01;59.00;;;30.73;;
9240;SDS011;53485;49.326;9.738;2023-02-12T09:20:28;55.90;;;31.37;;
9240;SDS011;53485;49.326;9.738;2023-02-12T09:22:54;59.10;;;30.60;;
9240;SDS011;53485;49.326;9.738;2023-02-12T09:25:21;60.90;;;31.10;;
9240;SDS011;53485;49.326;9.738;2023-02-12T09:27:47;56.83;;;30.53;;
9240;SDS011;53485;49.326;9.738;2023-02-12T09:30:14;63.20;;;31.67;;
9240;SDS011;53485;49.326;9.738;2023-02-12T09:32:41;61.17;;;31.20;;
9240;SDS011;53485;49.326;9.738;2023-02-12T09:35:07;54.67;;;30.60;;
9240;SDS011;53485;49.326;9.738;2023-02-12T09:37:33;55.40;;;29.33;;
9240;SDS011;53485;49.326;9.738;2023-02-12T09:40:00;50.83;;;28.13;;
9240;SDS011;53485;49.326;9.738;2023-02-12T09:42:32;48.23;;;27.90;;
9240;SDS011;53485;49.326;9.738;2023-02-12T09:45:06;55.23;;;30.00;;
9240;SDS011;53485;49.326;9.738;2023-02-12T09:47:54;45.60;;;25.67;;
9240;SDS011;53485;49.326;9.738;2023-02-12T09:50:26;45.37;;;24.47;;
9240;SDS011;53485;49.326;9.738;2023-02-12T09:52:48;48.07;;;26.57;;
9240;SDS011;53485;49.326;9.738;2023-02-12T09:55:14;41.97;;;24.60;;
9240;SDS011;53485;49.326;9.738;2023-02-12T09:57:40;45.20;;;25.60;;
9240;SDS011;53485;49.326;9.738;2023-02-12T10:00:09;44.83;;;25.20;;
9240;SDS011;53485;49.326;9.738;2023-02-12T10:02:35;47.70;;;26.40;;
9240;SDS011;53485;49.326;9.738;2023-02-12T10:05:01;43.13;;;24.73;;
9240;SDS011;53485;49.326;9.738;2023-02-12T10:07:31;38.40;;;22.50;;
9240;SDS011;53485;49.326;9.738;2023-02-12T10:10:02;37.73;;;22.83;;
9240;SDS011;53485;49.326;9.738;2023-02-12T10:12:30;41.30;;;23.00;;
9240;SDS011;53485;49.326;9.738;2023-02-12T10:14:58;40.30;;;23.13;;
9240;SDS011;53485;49.326;9.738;2023-02-12T10:17:26;37.50;;;21.93;;
9240;SDS011;53485;49.326;9.738;2023-02-12T10:20:11;34.90;;;22.10;;
9240;SDS011;53485;49.326;9.738;2023-02-12T10:22:52;38.93;;;22.10;;
9240;SDS011;53485;49.326;9.738;2023-02-12T10:25:21;31.93;;;20.60;;
9240;SDS011;53485;49.326;9.738;2023-02-12T10:27:48;38.70;;;21.87;;
9240;SDS011;53485;49.326;9.738;2023-02-12T10:30:47;36.47;;;21.80;;
9240;SDS011;53485;49.326;9.738;2023-02-12T10:32:55;34.00;;;20.83;;
9240;SDS011;53485;49.326;9.738;2023-02-12T10:35:20;39.23;;;23.70;;
9240;SDS011;53485;49.326;9.738;2023-02-12T10:38:03;39.30;;;25.40;;
9240;SDS011;53485;49.326;9.738;2023-02-12T10:40:28;33.30;;;21.00;;
9240;SDS011;53485;49.326;9.738;2023-02-12T10:42:53;35.50;;;22.13;;
9240;SDS011;53485;49.326;9.738;2023-02-12T10:45:20;33.40;;;20.70;;
9240;SDS011;53485;49.326;9.738;2023-02-12T10:47:46;34.60;;;21.60;;
9240;SDS011;53485;49.326;9.738;2023-02-12T10:50:15;27.80;;;19.20;;
9240;SDS011;53485;49.326;9.738;2023-02-12T10:52:42;30.53;;;20.37;;
9240;SDS011;53485;49.326;9.738;2023-02-12T10:55:38;26.63;;;16.93;;
9240;SDS011;53485;49.326;9.738;2023-02-12T10:57:47;23.53;;;15.23;;
9240;SDS011;53485;49.326;9.738;2023-02-12T11:00:29;24.40;;;16.67;;
9240;SDS011;53485;49.326;9.738;2023-02-12T11:03:01;25.53;;;15.33;;
9240;SDS011;53485;49.326;9.738;2023-02-12T11:05:28;21.30;;;14.50;;
9240;SDS011;53485;49.326;9.738;2023-02-12T11:07:52;18.40;;;12.80;;
9240;SDS011;53485;49.326;9.738;2023-02-12T11:10:20;18.57;;;11.60;;
9240;SDS011;53485;49.326;9.738;2023-02-12T11:12:46;22.03;;;15.57;;
9240;SDS011;53485;49.326;9.738;2023-02-12T11:15:13;23.13;;;14.43;;
9240;SDS011;53485;49.326;9.738;2023-02-12T11:17:39;18.20;;;13.00;;
9240;SDS011;53485;49.326;9.738;2023-02-12T11:20:18;16.30;;;11.07;;
9240;SDS011;53485;49.326;9.738;2023-02-12T11:22:33;16.60;;;10.73;;
9240;SDS011;53485;49.326;9.738;2023-02-12T11:25:00;10.87;;;7.50;;
9240;SDS011;53485;49.326;9.738;2023-02-12T11:27:26;9.73;;;7.13;;
9240;SDS011;53485;49.326;9.738;2023-02-12T11:32:23;11.73;;;8.03;;
9240;SDS011;53485;49.326;9.738;2023-02-12T11:37:22;7.43;;;5.73;;
9240;SDS011;53485;49.326;9.738;2023-02-12T11:39:49;10.20;;;7.07;;
9240;SDS011;53485;49.326;9.738;2023-02-12T11:42:17;10.87;;;7.67;;
9240;SDS011;53485;49.326;9.738;2023-02-12T11:44:42;11.50;;;7.40;;
9240;SDS011;53485;49.326;9.738;2023-02-12T11:47:09;12.80;;;8.40;;
9240;SDS011;53485;49.326;9.738;2023-02-12T11:49:38;12.03;;;7.57;;
9240;SDS011;53485;49.326;9.738;2023-02-12T11:52:03;9.93;;;7.30;;
9240;SDS011;53485;49.326;9.738;2023-02-12T11:54:31;12.87;;;7.80;;
9240;SDS011;53485;49.326;9.738;2023-02-12T11:56:55;15.03;;;8.47;;
9240;SDS011;53485;49.326;9.738;2023-02-12T11:59:26;10.27;;;7.17;;
9240;SDS011;53485;49.326;9.738;2023-02-12T12:01:50;9.97;;;6.43;;
9240;SDS011;53485;49.326;9.738;2023-02-12T12:04:16;12.77;;;6.70;;
9240;SDS011;53485;49.326;9.738;2023-02-12T12:06:44;8.00;;;5.53;;
9240;SDS011;53485;49.326;9.738;2023-02-12T12:09:12;7.60;;;5.37;;
9240;SDS011;53485;49.326;9.738;2023-02-12T12:11:41;10.37;;;5.90;;
9240;SDS011;53485;49.326;9.738;2023-02-12T12:16:41;8.03;;;4.97;;
9240;SDS011;53485;49.326;9.738;2023-02-12T12:19:15;8.27;;;5.57;;
9240;SDS011;53485;49.326;9.738;2023-02-12T12:21:49;9.57;;;6.63;;
9240;SDS011;53485;49.326;9.738;2023-02-12T12:24:13;10.47;;;7.30;;
9240;SDS011;53485;49.326;9.738;2023-02-12T12:26:39;14.43;;;8.23;;
9240;SDS011;53485;49.326;9.738;2023-02-12T12:29:10;10.10;;;6.73;;
9240;SDS011;53485;49.326;9.738;2023-02-12T12:31:33;8.50;;;5.20;;
9240;SDS011;53485;49.326;9.738;2023-02-12T12:36:35;5.07;;;4.20;;
9240;SDS011;53485;49.326;9.738;2023-02-12T12:39:11;8.07;;;4.47;;
9240;SDS011;53485;49.326;9.738;2023-02-12T12:41:43;7.87;;;3.93;;
9240;SDS011;53485;49.326;9.738;2023-02-12T12:44:10;6.07;;;4.17;;
9240;SDS011;53485;49.326;9.738;2023-02-12T12:46:35;3.67;;;3.00;;
9240;SDS011;53485;49.326;9.738;2023-02-12T12:49:04;7.83;;;5.23;;
9240;SDS011;53485;49.326;9.738;2023-02-12T12:51:53;7.83;;;4.70;;
9240;SDS011;53485;49.326;9.738;2023-02-12T12:54:19;7.67;;;5.73;;
9240;SDS011;53485;49.326;9.738;2023-02-12T12:56:57;4.23;;;3.47;;
9240;SDS011;53485;49.326;9.738;2023-02-12T12:59:29;9.23;;;7.00;;
9240;SDS011;53485;49.326;9.738;2023-02-12T13:01:56;6.20;;;4.77;;
9240;SDS011;53485;49.326;9.738;2023-02-12T13:04:24;3.33;;;2.67;;
9240;SDS011;53485;49.326;9.738;2023-02-12T13:06:55;6.90;;;4.93;;
9240;SDS011;53485;49.326;9.738;2023-02-12T13:09:39;3.93;;;2.77;;
9240;SDS011;53485;49.326;9.738;2023-02-12T13:12:12;6.87;;;4.60;;
9240;SDS011;53485;49.326;9.738;2023-02-12T13:14:43;7.97;;;4.13;;
9240;SDS011;53485;49.326;9.738;2023-02-12T13:17:13;5.13;;;3.50;;
9240;SDS011;53485;49.326;9.738;2023-02-12T13:19:43;3.33;;;3.03;;
9240;SDS011;53485;49.326;9.738;2023-02-12T13:22:09;4.07;;;3.37;;
9240;SDS011;53485;49.326;9.738;2023-02-12T13:24:50;4.40;;;3.67;;
9240;SDS011;53485;49.326;9.738;2023-02-12T13:27:17;10.73;;;7.20;;
9240;SDS011;53485;49.326;9.738;2023-02-12T13:29:43;5.13;;;4.30;;
9240;SDS011;53485;49.326;9.738;2023-02-12T13:32:14;4.73;;;4.10;;
9240;SDS011;53485;49.326;9.738;2023-02-12T13:34:39;5.50;;;4.33;;
9240;SDS011;53485;49.326;9.738;2023-02-12T13:37:06;5.60;;;3.97;;
9240;SDS011;53485;49.326;9.738;2023-02-12T13:39:35;4.30;;;3.90;;
9240;SDS011;53485;49.326;9.738;2023-02-12T13:45:06;5.23;;;4.40;;
9240;SDS011;53485;49.326;9.738;2023-02-12T13:47:31;3.73;;;3.00;;
9240;SDS011;53485;49.326;9.738;2023-02-12T13:50:18;7.40;;;4.40;;
9240;SDS011;53485;49.326;9.738;2023-02-12T13:52:40;4.10;;;3.20;;
9240;SDS011;53485;49.326;9.738;2023-02-12T14:03:07;5.30;;;3.70;;
9240;SDS011;53485;49.326;9.738;2023-02-12T14:05:29;5.60;;;4.70;;
9240;SDS011;53485;49.326;9.738;2023-02-12T14:07:56;5.73;;;3.40;;
9240;SDS011;53485;49.326;9.738;2023-02-12T14:10:23;3.00;;;2.57;;
9240;SDS011;53485;49.326;9.738;2023-02-12T14:12:48;3.97;;;2.97;;
9240;SDS011;53485;49.326;9.738;2023-02-12T14:15:25;4.90;;;3.10;;
9240;SDS011;53485;49.326;9.738;2023-02-12T14:17:53;3.87;;;2.80;;
9240;SDS011;53485;49.326;9.738;2023-02-12T14:20:24;2.87;;;2.37;;
9240;SDS011;53485;49.326;9.738;2023-02-12T14:22:58;3.83;;;2.67;;
9240;SDS011;53485;49.326;9.738;2023-02-12T14:25:29;2.90;;;2.50;;
9240;SDS011;53485;49.326;9.738;2023-02-12T14:27:52;3.70;;;3.00;;
9240;SDS011;53485;49.326;9.738;2023-02-12T14:30:22;8.40;;;5.93;;
9240;SDS011;53485;49.326;9.738;2023-02-12T14:33:52;7.67;;;5.40;;
9240;SDS011;53485;49.326;9.738;2023-02-12T14:35:30;7.57;;;4.70;;
9240;SDS011;53485;49.326;9.738;2023-02-12T14:37:56;19.43;;;12.43;;
9240;SDS011;53485;49.326;9.738;2023-02-12T14:40:29;8.53;;;6.37;;
9240;SDS011;53485;49.326;9.738;2023-02-12T14:42:54;8.80;;;6.33;;
9240;SDS011;53485;49.326;9.738;2023-02-12T14:47:50;10.87;;;6.87;;
9240;SDS011;53485;49.326;9.738;2023-02-12T14:50:19;9.77;;;7.63;;
9240;SDS011;53485;49.326;9.738;2023-02-12T14:52:43;7.73;;;6.47;;
9240;SDS011;53485;49.326;9.738;2023-02-12T14:55:21;9.43;;;7.30;;
9240;SDS011;53485;49.326;9.738;2023-02-12T14:57:48;11.73;;;6.67;;
9240;SDS011;53485;49.326;9.738;2023-02-12T15:00:20;9.57;;;7.57;;
9240;SDS011;53485;49.326;9.738;2023-02-12T15:02:50;9.23;;;7.23;;
9240;SDS011;53485;49.326;9.738;2023-02-12T15:05:15;7.40;;;6.07;;
9240;SDS011;53485;49.326;9.738;2023-02-12T15:07:42;8.53;;;6.07;;
9240;SDS011;53485;49.326;9.738;2023-02-12T15:10:07;7.90;;;6.20;;
9240;SDS011;53485;49.326;9.738;2023-02-12T15:12:34;7.80;;;6.27;;
9240;SDS011;53485;49.326;9.738;2023-02-12T15:15:05;7.60;;;6.30;;